createdAt,value
2018-07-11T00:02:20.829Z,95172.89
2018-07-11T00:04:50.801Z,95184.58
2018-07-11T00:07:20.766Z,95179.75
2018-07-11T00:09:50.541Z,95178.27
2018-07-11T00:12:20.405Z,95180.47
2018-07-11T00:14:50.199Z,95182.83
2018-07-11T00:17:19.979Z,95177.15
2018-07-11T00:19:49.821Z,95174.73
2018-07-11T00:22:19.519Z,95175.24
2018-07-11T00:24:49.270Z,95169.08
2018-07-11T00:27:19.247Z,95173.00
2018-07-11T00:29:49.180Z,95166.94
2018-07-11T00:32:19.137Z,95165.54
2018-07-11T00:34:48.909Z,95165.80
2018-07-11T00:37:18.891Z,95168.62
2018-07-11T00:39:48.987Z,95166.75
2018-07-11T00:42:18.858Z,95173.90
2018-07-11T00:44:48.896Z,95176.29
2018-07-11T00:47:19.418Z,95169.42
2018-07-11T00:49:49.201Z,95172.22
2018-07-11T00:52:19.851Z,95175.94
2018-07-11T00:54:49.737Z,95169.02
2018-07-11T00:57:20.906Z,95167.73
2018-07-11T00:59:50.772Z,95166.64
2018-07-11T01:02:20.906Z,95161.95
2018-07-11T01:04:51.061Z,95165.84
2018-07-11T01:07:21.935Z,95169.55
2018-07-11T01:09:52.037Z,95167.06
2018-07-11T01:12:22.012Z,95167.92
2018-07-11T01:14:51.962Z,95168.23
2018-07-11T01:18:29.783Z,95167.69
2018-07-11T01:20:59.591Z,95173.89
2018-07-11T01:23:29.414Z,95162.14
2018-07-11T01:25:59.507Z,95165.93
2018-07-11T01:28:29.388Z,95164.13
2018-07-11T01:30:59.299Z,95175.33
2018-07-11T01:33:29.142Z,95177.48
2018-07-11T01:35:58.976Z,95186.75
2018-07-11T01:38:28.735Z,95185.49
2018-07-11T01:40:58.625Z,95186.67
2018-07-11T01:43:28.624Z,95183.58
2018-07-11T01:45:58.395Z,95185.55
2018-07-11T01:48:28.706Z,95183.46
2018-07-11T01:50:58.848Z,95185.08
2018-07-11T01:53:28.890Z,95194.44
2018-07-11T01:55:59.238Z,95182.83
2018-07-11T01:58:29.340Z,95189.98
2018-07-11T02:00:59.432Z,95188.12
2018-07-11T02:03:29.578Z,95181.26
2018-07-11T02:06:00.299Z,95182.33
2018-07-11T02:08:30.386Z,95187.32
2018-07-11T02:11:00.472Z,95191.09
2018-07-11T02:13:30.513Z,95182.08
2018-07-11T02:16:00.950Z,95179.09
2018-07-11T02:18:31.325Z,95182.09
2018-07-11T02:21:01.933Z,95191.98
2018-07-11T02:23:35.171Z,95190.90
2018-07-11T02:26:06.090Z,95194.50
2018-07-11T02:28:36.203Z,95188.84
2018-07-11T02:31:06.247Z,95191.80
2018-07-11T02:33:36.134Z,95195.62
2018-07-11T02:36:07.466Z,95202.18
2018-07-11T02:38:37.428Z,95203.56
2018-07-11T02:41:07.343Z,95209.85
2018-07-11T02:43:37.404Z,95204.41
2018-07-11T02:46:08.092Z,95209.47
2018-07-11T02:48:38.303Z,95207.34
2018-07-11T02:51:08.314Z,95205.63
2018-07-11T02:53:38.130Z,95209.69
2018-07-11T02:56:08.838Z,95203.86
2018-07-11T02:58:38.785Z,95205.74
2018-07-11T03:01:08.648Z,95201.26
2018-07-11T03:03:38.598Z,95203.94
2018-07-11T03:06:09.234Z,95205.66
2018-07-11T03:08:39.915Z,95214.41
2018-07-11T03:11:09.973Z,95215.84
2018-07-11T03:13:39.733Z,95214.17
2018-07-11T03:16:09.919Z,95212.55
2018-07-11T03:18:39.909Z,95208.77
2018-07-11T03:21:09.786Z,95212.63
2018-07-11T03:23:39.718Z,95218.20
2018-07-11T03:26:09.623Z,95210.67
2018-07-11T03:28:39.423Z,95217.11
2018-07-11T03:31:09.321Z,95219.14
2018-07-11T03:33:39.305Z,95227.13
2018-07-11T03:36:09.177Z,95224.73
2018-07-11T03:38:39.175Z,95222.05
2018-07-11T03:41:09.024Z,95231.02
2018-07-11T03:43:38.809Z,95230.41
2018-07-11T03:46:08.894Z,95231.62
2018-07-11T03:48:38.871Z,95224.78
2018-07-11T03:51:08.908Z,95229.30
2018-07-11T03:53:38.858Z,95221.66
2018-07-11T03:56:08.689Z,95221.78
2018-07-11T03:58:38.522Z,95228.00
2018-07-11T04:02:11.216Z,95231.74
2018-07-11T04:04:40.950Z,95232.63
2018-07-11T04:07:10.742Z,95234.61
2018-07-11T04:09:40.741Z,95228.90
2018-07-11T04:12:10.531Z,95227.33
2018-07-11T04:14:40.350Z,95229.03
2018-07-11T04:17:10.214Z,95228.32
2018-07-11T04:19:40.032Z,95225.67
2018-07-11T04:22:09.946Z,95231.36
2018-07-11T04:24:39.902Z,95236.59
2018-07-11T04:27:09.854Z,95233.85
2018-07-11T04:31:08.862Z,95241.09
2018-07-11T04:33:38.780Z,95240.33
2018-07-11T04:36:08.758Z,95238.98
2018-07-11T04:38:38.448Z,95236.67
2018-07-11T04:41:08.416Z,95238.44
2018-07-11T04:43:38.339Z,95244.35
2018-07-11T04:46:08.258Z,95252.18
2018-07-11T04:48:38.417Z,95253.06
2018-07-11T04:51:08.378Z,95252.58
2018-07-11T04:53:38.924Z,95248.99
2018-07-11T04:56:08.828Z,95252.73
2018-07-11T04:58:38.685Z,95253.44
2018-07-11T05:01:08.498Z,95251.22
2018-07-11T05:03:38.973Z,95252.50
2018-07-11T05:06:08.777Z,95253.68
2018-07-11T05:08:38.605Z,95256.66
2018-07-11T05:11:08.568Z,95249.59
2018-07-11T05:13:38.428Z,95247.00
2018-07-11T05:16:08.349Z,95242.58
2018-07-11T05:18:38.263Z,95249.28
2018-07-11T05:21:08.223Z,95248.00
2018-07-11T05:23:38.071Z,95248.92
2018-07-11T05:26:07.908Z,95251.19
2018-07-11T05:28:37.696Z,95243.84
2018-07-11T05:31:07.557Z,95249.12
2018-07-11T05:33:37.411Z,95250.09
2018-07-11T05:36:07.313Z,95252.94
2018-07-11T05:38:37.129Z,95255.56
2018-07-11T05:41:07.015Z,95260.25
2018-07-11T05:43:36.832Z,95251.32
2018-07-11T05:46:06.736Z,95258.84
2018-07-11T05:48:36.530Z,95274.04
2018-07-11T05:51:06.419Z,95262.03
2018-07-11T05:53:36.462Z,95263.56
2018-07-11T05:56:06.241Z,95262.14
2018-07-11T05:58:36.250Z,95266.08
2018-07-11T06:01:06.010Z,95260.85
2018-07-11T06:03:35.813Z,95261.73
2018-07-11T06:06:05.706Z,95259.92
2018-07-11T06:08:35.503Z,95262.20
2018-07-11T06:11:10.643Z,95265.17
2018-07-11T06:13:42.345Z,95265.01
2018-07-11T06:16:13.000Z,95257.89
2018-07-11T06:18:43.433Z,95261.45
2018-07-11T06:21:13.275Z,95259.31
2018-07-11T06:23:43.724Z,95253.16
2018-07-11T06:26:13.745Z,95258.34
2018-07-11T06:28:43.571Z,95251.57
2018-07-11T06:31:13.406Z,95255.08
2018-07-11T06:33:43.377Z,95255.14
2018-07-11T06:36:13.531Z,95249.91
2018-07-11T06:38:44.020Z,95254.39
2018-07-11T06:41:13.885Z,95243.34
2018-07-11T06:43:44.717Z,95238.92
2018-07-11T06:46:14.618Z,95243.08
2018-07-11T06:48:44.778Z,95240.82
2018-07-11T06:51:15.341Z,95237.27
2018-07-11T06:53:46.371Z,95243.58
2018-07-11T06:56:16.740Z,95234.29
2018-07-11T06:58:47.464Z,95233.67
2018-07-11T07:01:17.911Z,95236.11
2018-07-11T07:03:48.132Z,95229.06
2018-07-11T07:06:18.080Z,95228.36
2018-07-11T07:08:47.914Z,95224.84
2018-07-11T07:11:17.790Z,95222.41
2018-07-11T07:13:47.539Z,95220.28
2018-07-11T07:16:17.459Z,95216.33
2018-07-11T07:18:47.278Z,95222.23
2018-07-11T07:21:17.135Z,95212.16
2018-07-11T07:23:47.139Z,95219.16
2018-07-11T07:26:16.992Z,95219.08
2018-07-11T07:28:46.887Z,95216.53
2018-07-11T07:31:16.792Z,95215.50
2018-07-11T07:33:46.663Z,95220.72
2018-07-11T07:36:16.482Z,95209.11
2018-07-11T07:38:46.438Z,95208.41
2018-07-11T07:41:16.250Z,95200.07
2018-07-11T07:43:46.277Z,95200.44
2018-07-11T07:46:16.207Z,95196.70
2018-07-11T07:48:46.193Z,95207.22
2018-07-11T07:51:16.297Z,95204.73
2018-07-11T07:53:46.477Z,95200.66
2018-07-11T07:56:16.654Z,95199.06
2018-07-11T07:58:46.638Z,95197.18
2018-07-11T08:01:16.638Z,95194.41
2018-07-11T08:03:46.978Z,95195.00
2018-07-11T08:06:16.951Z,95194.50
2018-07-11T08:08:46.810Z,95191.12
2018-07-11T08:11:16.675Z,95201.64
2018-07-11T08:13:46.797Z,95197.91
2018-07-11T08:16:16.694Z,95191.31
2018-07-11T08:18:46.511Z,95188.80
2018-07-11T08:21:16.504Z,95187.60
2018-07-11T08:23:56.939Z,95186.69
2018-07-11T08:26:37.451Z,95185.63
2018-07-11T08:31:46.219Z,95178.75
2018-07-11T08:36:30.889Z,95177.09
2018-07-11T08:40:18.676Z,95173.36
2018-07-11T08:43:00.270Z,95171.34
2018-07-11T08:45:41.921Z,95166.14
2018-07-11T08:50:25.778Z,95170.61
2018-07-11T08:53:18.269Z,95156.70
2018-07-11T08:56:00.404Z,95156.40
2018-07-11T09:02:47.930Z,95160.80
2018-07-11T09:05:28.304Z,95154.23
2018-07-11T09:10:11.022Z,95151.00
2018-07-11T09:12:51.421Z,95149.02
2018-07-11T09:18:40.795Z,95147.55
2018-07-11T09:23:29.976Z,95142.53
2018-07-11T09:25:59.991Z,95140.48
2018-07-11T09:28:29.659Z,95134.59
2018-07-11T09:30:59.638Z,95140.22
2018-07-11T09:33:29.450Z,95143.22
2018-07-11T09:35:59.744Z,95142.58
2018-07-11T09:38:29.496Z,95139.56
2018-07-11T09:40:59.513Z,95140.33
2018-07-11T09:43:29.613Z,95136.59
2018-07-11T09:45:59.957Z,95135.39
2018-07-11T09:48:30.601Z,95131.52
2018-07-11T09:51:00.934Z,95138.05
2018-07-11T09:53:31.232Z,95140.43
2018-07-11T09:56:02.258Z,95120.96
2018-07-11T09:58:32.985Z,95132.10
2018-07-11T10:01:08.396Z,95130.98
2018-07-11T10:03:39.210Z,95126.31
2018-07-11T10:06:09.961Z,95122.39
2018-07-11T10:08:40.338Z,95118.07
2018-07-11T10:11:10.633Z,95117.34
2018-07-11T10:13:40.968Z,95111.25
2018-07-11T10:16:11.364Z,95115.12
2018-07-11T10:18:46.889Z,95116.22
2018-07-11T10:21:17.182Z,95115.14
2018-07-11T10:23:47.656Z,95112.72
2018-07-11T10:26:18.870Z,95109.00
2018-07-11T10:28:49.057Z,95102.84
2018-07-11T10:31:19.468Z,95103.54
2018-07-11T10:33:50.012Z,95097.38
2018-07-11T10:36:21.485Z,95064.83
2018-07-11T10:38:51.740Z,95105.14
2018-07-11T10:41:22.017Z,95098.34
2018-07-11T10:43:52.516Z,95092.20
2018-07-11T10:46:23.654Z,95085.13
2018-07-11T10:48:53.850Z,95087.94
2018-07-11T10:51:24.058Z,95081.77
2018-07-11T10:53:54.559Z,95084.13
2018-07-11T10:56:25.276Z,95078.93
2018-07-11T10:58:56.165Z,95072.16
2018-07-11T11:01:26.449Z,95078.33
2018-07-11T11:03:56.939Z,95075.66
2018-07-11T11:06:28.600Z,95070.75
2018-07-11T11:08:59.271Z,95073.55
2018-07-11T11:11:29.574Z,95071.95
2018-07-11T11:13:59.947Z,95060.26
2018-07-11T11:16:30.956Z,95069.17
2018-07-11T11:19:01.660Z,95062.97
2018-07-11T11:21:32.231Z,95061.95
2018-07-11T11:24:02.597Z,95060.59
2018-07-11T11:26:33.127Z,95055.55
2018-07-11T11:29:03.644Z,95044.54
2018-07-11T11:31:33.817Z,95051.55
2018-07-11T11:34:03.931Z,95041.58
2018-07-11T11:36:34.982Z,95039.33
2018-07-11T11:39:05.636Z,95018.91
2018-07-11T11:41:36.014Z,95041.38
2018-07-11T11:44:06.372Z,95032.05
2018-07-11T11:46:37.571Z,95029.84
2018-07-11T11:49:08.118Z,95027.73
2018-07-11T11:51:38.847Z,95024.61
2018-07-11T11:54:09.353Z,95023.41
2018-07-11T11:56:39.902Z,95015.11
2018-07-11T11:59:10.446Z,95000.02
2018-07-11T12:01:40.811Z,95015.48
2018-07-11T12:04:11.286Z,95009.71
2018-07-11T12:06:41.855Z,95010.44
2018-07-11T12:09:11.535Z,95007.83
2018-07-11T12:11:41.920Z,95010.77
2018-07-11T12:14:12.251Z,95002.33
2018-07-11T12:16:42.742Z,95006.47
2018-07-11T12:19:12.576Z,94998.84
2018-07-11T12:21:42.429Z,94996.81
2018-07-11T12:24:12.422Z,95000.86
2018-07-11T12:26:43.674Z,94995.02
2018-07-11T12:29:13.498Z,94997.77
2018-07-11T12:31:43.305Z,94993.23
2018-07-11T12:34:13.053Z,94990.70
2018-07-11T12:36:43.701Z,94979.38
2018-07-11T12:39:13.478Z,94982.91
2018-07-11T12:41:43.282Z,94978.16
2018-07-11T12:44:13.076Z,94980.48
2018-07-11T12:46:43.055Z,94975.09
2018-07-11T12:49:12.975Z,94983.36
2018-07-11T12:51:42.778Z,94975.33
2018-07-11T12:54:13.157Z,94980.41
2018-07-11T12:56:44.003Z,94977.94
2018-07-11T12:59:14.560Z,94977.39
2018-07-11T13:01:45.371Z,94974.32
2018-07-11T13:04:15.873Z,94974.50
2018-07-11T13:06:47.541Z,94974.47
2018-07-11T13:09:18.152Z,94972.47
2018-07-11T13:11:48.349Z,94975.16
2018-07-11T13:14:18.519Z,94974.64
2018-07-11T13:16:49.941Z,94976.70
2018-07-11T13:19:20.660Z,94970.42
2018-07-11T13:21:50.886Z,94969.42
2018-07-11T13:24:21.236Z,94966.40
2018-07-11T13:26:51.808Z,94971.98
2018-07-11T13:29:22.255Z,94962.74
2018-07-11T13:31:52.185Z,94966.54
2018-07-11T13:34:22.410Z,94966.55
2018-07-11T13:36:52.561Z,94967.14
2018-07-11T13:39:23.708Z,94969.98
2018-07-11T13:41:53.917Z,94962.78
2018-07-11T13:44:24.562Z,94968.06
2018-07-11T13:46:55.761Z,94963.64
2018-07-11T13:49:26.066Z,94966.30
2018-07-11T13:51:56.760Z,94971.30
2018-07-11T13:54:27.253Z,94965.91
2018-07-11T13:56:58.851Z,94962.48
2018-07-11T13:59:29.133Z,94968.70
2018-07-11T14:01:59.437Z,94969.45
2018-07-11T14:04:29.968Z,94969.00
2018-07-11T14:07:00.626Z,94963.66
2018-07-11T14:09:30.418Z,94965.58
2018-07-11T14:12:00.444Z,94969.22
2018-07-11T14:14:30.936Z,94976.28
2018-07-11T14:17:01.774Z,94969.41
2018-07-11T14:19:32.263Z,94971.96
2018-07-11T14:22:02.773Z,94978.83
2018-07-11T14:24:33.088Z,94972.33
2018-07-11T14:27:03.956Z,94973.05
2018-07-11T14:29:34.628Z,94973.12
2018-07-11T14:32:05.090Z,94974.19
2018-07-11T14:34:35.488Z,94967.48
2018-07-11T14:37:06.091Z,94967.91
2018-07-11T14:39:36.074Z,94973.91
2018-07-11T14:42:05.929Z,94956.02
2018-07-11T14:44:36.055Z,94962.86
2018-07-11T14:47:11.059Z,94960.59
2018-07-11T14:49:41.162Z,94966.36
2018-07-11T14:52:10.918Z,94959.34
2018-07-11T14:54:40.897Z,94954.91
2018-07-11T14:57:12.021Z,94960.14
2018-07-11T14:59:41.925Z,94954.41
2018-07-11T15:02:11.837Z,94953.98
2018-07-11T15:04:41.959Z,94948.23
2018-07-11T15:07:12.203Z,94944.95
2018-07-11T15:09:42.079Z,94948.04
2018-07-11T15:12:11.801Z,94945.02
2018-07-11T15:14:41.727Z,94949.91
2018-07-11T15:17:11.519Z,94948.60
2018-07-11T15:19:41.337Z,94946.06
2018-07-11T15:22:11.344Z,94948.30
2018-07-11T15:24:41.246Z,94952.84
2018-07-11T15:27:11.048Z,94960.21
2018-07-11T15:29:41.684Z,94951.88
2018-07-11T15:32:12.187Z,94955.75
2018-07-11T15:34:42.317Z,94908.65
2018-07-11T15:37:13.235Z,94957.56
2018-07-11T15:39:44.020Z,94960.30
2018-07-11T15:42:13.854Z,94954.89
2018-07-11T15:44:44.302Z,94957.11
2018-07-11T15:47:14.696Z,94961.20
2018-07-11T15:49:44.598Z,94963.56
2018-07-11T15:52:14.420Z,94958.84
2018-07-11T15:54:44.494Z,94959.77
2018-07-11T15:57:15.485Z,94962.52
2018-07-11T15:59:55.826Z,94959.32
2018-07-11T16:02:25.783Z,94956.72
2018-07-11T16:04:56.014Z,94957.42
2018-07-11T16:07:30.501Z,94962.09
2018-07-11T16:10:01.080Z,94966.08
2018-07-11T16:12:30.967Z,94963.51
2018-07-11T16:15:00.747Z,94971.27
2018-07-11T16:17:30.570Z,94973.23
2018-07-11T16:20:00.452Z,94969.95
2018-07-11T16:22:30.387Z,94926.75
2018-07-11T16:25:00.278Z,94971.94
2018-07-11T16:27:30.307Z,94969.98
2018-07-11T16:30:00.081Z,94980.49
2018-07-11T16:32:29.863Z,94979.13
2018-07-11T16:34:59.731Z,94984.59
2018-07-11T16:37:29.596Z,94977.00
2018-07-11T16:39:59.481Z,94982.05
2018-07-11T16:42:29.542Z,94983.63
2018-07-11T16:44:59.508Z,94982.84
2018-07-11T16:47:30.374Z,94988.27
2018-07-11T16:50:00.460Z,94986.33
2018-07-11T16:52:30.918Z,94985.56
2018-07-11T16:55:02.123Z,94991.14
2018-07-11T16:57:50.635Z,95000.05
2018-07-11T17:00:25.051Z,95006.72
2018-07-11T17:03:02.203Z,95000.89
2018-07-11T17:06:13.701Z,94999.70
2018-07-11T17:08:59.106Z,95013.28
2018-07-11T17:11:29.754Z,95010.52
2018-07-11T17:14:02.302Z,95010.52
2018-07-11T17:16:40.212Z,95016.78
2018-07-11T17:19:28.262Z,95024.94
2018-07-11T17:21:58.919Z,95028.20
2018-07-11T17:24:29.029Z,95038.18
2018-07-11T17:26:59.883Z,95040.75
2018-07-11T17:29:30.830Z,95047.77
2018-07-11T17:32:06.675Z,95048.89
2018-07-11T17:34:37.116Z,95050.23
2018-07-11T17:37:08.316Z,95049.58
2018-07-11T17:40:11.549Z,95059.92
2018-07-11T17:42:44.049Z,95054.37
2018-07-11T17:45:18.080Z,95058.28
2018-07-11T17:49:58.180Z,95057.77
2018-07-11T17:52:29.210Z,95059.46
2018-07-11T17:55:10.144Z,95066.02
2018-07-11T17:57:50.045Z,95057.31
2018-07-11T18:00:31.123Z,95067.02
2018-07-11T18:04:07.786Z,95070.52
2018-07-11T18:06:46.898Z,95070.30
2018-07-11T18:09:16.731Z,95073.75
2018-07-11T18:12:00.579Z,95068.22
2018-07-11T18:14:45.231Z,95072.00
2018-07-11T18:17:37.362Z,95077.38
2018-07-11T18:22:20.862Z,95035.59
2018-07-11T18:24:58.713Z,95105.76
2018-07-11T18:27:39.332Z,95109.03
2018-07-11T18:30:19.199Z,95116.22
2018-07-11T18:33:10.257Z,95129.53
2018-07-11T18:35:47.753Z,95125.12
2018-07-11T18:38:24.145Z,95126.50
2018-07-11T18:41:12.196Z,95136.95
2018-07-11T18:45:55.221Z,95140.52
2018-07-11T18:50:40.966Z,95148.87
2018-07-11T18:53:22.300Z,95159.95
2018-07-11T18:56:07.798Z,95164.78
2018-07-11T18:58:44.657Z,95162.01
2018-07-11T19:02:23.550Z,95168.69
2018-07-11T19:05:04.361Z,95172.52
2018-07-11T19:07:41.608Z,95173.67
2018-07-11T19:10:14.304Z,95185.66
2018-07-11T19:12:58.132Z,95184.48
2018-07-11T19:15:36.792Z,95182.96
2018-07-11T19:18:13.910Z,95187.53
2018-07-11T19:21:21.556Z,95192.98
2018-07-11T19:23:59.881Z,95193.02
2018-07-11T19:27:37.936Z,95198.11
2018-07-11T19:30:12.032Z,95203.20
2018-07-11T19:34:49.550Z,95199.70
2018-07-11T19:37:33.347Z,95204.48
2018-07-11T19:40:45.598Z,95208.42
2018-07-11T19:43:52.635Z,95207.88
2018-07-11T19:46:33.239Z,95216.44
2018-07-11T19:49:23.183Z,95214.55
2018-07-11T19:51:59.948Z,95218.85
2018-07-11T19:54:40.452Z,95220.06
2018-07-11T19:57:10.488Z,95212.87
2018-07-11T19:59:40.264Z,95215.44
2018-07-11T20:02:10.992Z,95215.76
2018-07-11T20:04:41.084Z,95216.45
2018-07-11T20:07:11.093Z,95218.65
2018-07-11T20:09:41.324Z,95218.06
2018-07-11T20:12:12.087Z,95225.66
2018-07-11T20:14:42.058Z,95231.80
2018-07-11T20:17:11.803Z,95226.86
2018-07-11T20:19:41.738Z,95236.29
2018-07-11T20:22:11.862Z,95235.95
2018-07-11T20:24:42.037Z,95232.29
2018-07-11T20:27:11.790Z,95238.17
2018-07-11T20:29:41.727Z,95236.32
2018-07-11T20:32:12.466Z,95237.25
2018-07-11T20:34:42.261Z,95243.74
2018-07-11T20:37:12.106Z,95243.91
2018-07-11T20:39:42.007Z,95243.84
2018-07-11T20:42:12.406Z,95243.21
2018-07-11T20:44:42.275Z,95247.38
2018-07-11T20:47:12.162Z,95244.66
2018-07-11T20:49:41.885Z,95247.27
2018-07-11T20:52:12.436Z,95246.13
2018-07-11T20:54:42.217Z,95252.42
2018-07-11T20:57:12.059Z,95247.14
2018-07-11T20:59:52.533Z,95249.25
2018-07-11T21:02:33.943Z,95248.92
2018-07-11T21:05:23.165Z,95257.62
2018-07-11T21:08:06.953Z,95254.02
2018-07-11T21:12:50.860Z,95258.05
2018-07-11T21:15:30.443Z,95253.94
2018-07-11T21:19:05.279Z,95252.75
2018-07-11T21:21:35.902Z,95267.68
2018-07-11T21:24:06.821Z,95266.64
2018-07-11T21:26:37.165Z,95263.18
2018-07-11T21:29:07.990Z,95269.95
2018-07-11T21:31:37.919Z,95263.16
2018-07-11T21:34:07.768Z,95261.08
2018-07-11T21:36:37.594Z,95258.43
2018-07-11T21:39:08.247Z,95259.29
2018-07-11T21:41:37.982Z,95265.72
2018-07-11T21:44:07.596Z,95261.30
2018-07-11T21:46:37.521Z,95264.64
2018-07-11T21:49:07.293Z,95262.43
2018-07-11T21:51:37.064Z,95253.81
2018-07-11T21:54:06.914Z,95255.59
2018-07-11T21:56:36.667Z,95258.30
2018-07-11T21:59:06.546Z,95264.20
2018-07-11T22:01:36.322Z,95266.06
2018-07-11T22:04:06.181Z,95269.13
2018-07-11T22:06:35.976Z,95267.63
2018-07-11T22:09:06.127Z,95274.06
2018-07-11T22:11:35.758Z,95268.67
2018-07-11T22:14:05.902Z,95273.75
2018-07-11T22:16:35.723Z,95265.86
2018-07-11T22:19:05.638Z,95269.99
2018-07-11T22:21:33.721Z,95270.22
2018-07-11T22:24:01.827Z,95270.18
2018-07-11T22:26:29.812Z,95256.78
2018-07-11T22:28:57.909Z,95260.80
2018-07-11T22:31:25.996Z,95262.30
2018-07-11T22:33:54.029Z,95267.37
2018-07-11T22:36:22.114Z,95274.95
2018-07-11T22:38:50.126Z,95267.73
2018-07-11T22:41:18.216Z,95265.80
2018-07-11T22:43:46.297Z,95265.20
2018-07-11T22:46:14.338Z,95263.86
2018-07-11T22:48:42.424Z,95262.45
2018-07-11T22:51:10.515Z,95265.30
2018-07-11T22:53:38.515Z,95266.37
2018-07-11T22:56:06.638Z,95261.28
2018-07-11T23:01:33.401Z,95263.17
2018-07-11T23:04:01.438Z,95263.85
2018-07-11T23:06:29.477Z,95262.58
2018-07-11T23:08:57.629Z,95260.98
2018-07-11T23:11:25.577Z,95262.63
2018-07-11T23:13:53.613Z,95260.67
2018-07-11T23:16:21.962Z,95261.11
2018-07-11T23:18:50.060Z,95254.45
2018-07-11T23:21:18.152Z,95261.90
2018-07-11T23:23:46.188Z,95266.23
2018-07-11T23:26:14.275Z,95267.66
2018-07-11T23:28:42.398Z,95270.34
2018-07-11T23:31:10.478Z,95267.25
2018-07-11T23:33:38.494Z,95247.36
2018-07-11T23:36:06.593Z,95272.25
2018-07-11T23:38:34.652Z,95268.42
2018-07-11T23:41:02.686Z,95268.81
2018-07-11T23:43:30.728Z,95268.98
2018-07-11T23:45:59.239Z,95277.27
2018-07-11T23:48:27.292Z,95271.10
2018-07-11T23:50:55.374Z,95269.55
2018-07-11T23:53:23.415Z,95268.81
2018-07-11T23:55:51.455Z,95273.22
2018-07-11T23:58:19.563Z,95272.50
